createdAt,value
2023-01-11T00:00:03.421Z,1021.29
2023-01-11T00:05:10.604Z,1021.18
2023-01-11T00:10:17.805Z,1021.14
2023-01-11T00:15:25.031Z,1021.06
2023-01-11T00:20:32.211Z,1021.04
2023-01-11T00:25:39.432Z,1021.00
2023-01-11T00:30:46.667Z,1021.05
2023-01-11T00:35:53.830Z,1020.95
2023-01-11T00:41:01.068Z,1020.87
2023-01-11T00:46:08.292Z,1020.89
2023-01-11T00:51:15.385Z,1020.87
2023-01-11T00:56:22.571Z,1020.90
2023-01-11T01:01:29.841Z,1020.97
2023-01-11T01:06:36.957Z,1020.99
2023-01-11T01:11:44.180Z,1020.99
2023-01-11T01:16:51.363Z,1020.90
2023-01-11T01:21:58.593Z,1020.96
2023-01-11T01:27:05.814Z,1020.94
2023-01-11T01:32:12.925Z,1020.96
2023-01-11T01:37:20.056Z,1020.87
2023-01-11T01:42:27.288Z,1020.84
2023-01-11T01:47:34.388Z,1020.96
2023-01-11T01:52:41.583Z,1020.88
2023-01-11T01:57:48.825Z,1020.77
2023-01-11T02:02:56.193Z,1020.68
2023-01-11T02:08:03.217Z,1020.72
2023-01-11T02:13:10.500Z,1020.69
2023-01-11T02:18:17.626Z,1020.62
2023-01-11T02:23:24.857Z,1020.56
2023-01-11T02:28:32.060Z,1020.34
2023-01-11T02:33:39.368Z,1020.35
2023-01-11T02:38:46.559Z,1020.36
2023-01-11T02:43:53.780Z,1020.33
2023-01-11T02:49:00.995Z,1020.24
2023-01-11T02:54:08.169Z,1020.14
2023-01-11T02:59:15.433Z,1020.19
2023-01-11T03:04:22.576Z,1020.05
2023-01-11T03:09:29.778Z,1019.98
2023-01-11T03:14:37.051Z,1019.87
2023-01-11T03:19:44.169Z,1019.82
2023-01-11T03:24:51.378Z,1019.72
2023-01-11T03:29:58.607Z,1019.73
2023-01-11T03:35:05.787Z,1019.76
2023-01-11T03:40:13.036Z,1019.73
2023-01-11T03:45:20.298Z,1019.61
2023-01-11T03:50:27.419Z,1019.61
2023-01-11T03:55:34.570Z,1019.57
2023-01-11T04:00:41.819Z,1019.39
2023-01-11T04:05:48.931Z,1019.53
2023-01-11T04:10:56.172Z,1019.41
2023-01-11T04:16:03.409Z,1019.30
2023-01-11T04:21:10.693Z,1019.28
2023-01-11T04:26:17.958Z,1019.31
2023-01-11T04:31:25.383Z,1019.27
2023-01-11T04:36:32.446Z,1019.14
2023-01-11T04:41:39.643Z,1019.13
2023-01-11T04:46:46.799Z,1019.13
2023-01-11T04:51:53.953Z,1019.15
2023-01-11T04:57:01.178Z,1019.03
2023-01-11T05:02:08.385Z,1018.98
2023-01-11T05:07:15.522Z,1018.95
2023-01-11T05:12:22.694Z,1018.97
2023-01-11T05:17:29.953Z,1019.00
2023-01-11T05:22:37.331Z,1018.95
2023-01-11T05:27:44.512Z,1019.06
2023-01-11T05:32:51.737Z,1018.98
2023-01-11T05:37:58.912Z,1018.84
2023-01-11T05:43:06.061Z,1018.79
2023-01-11T05:48:13.260Z,1018.84
2023-01-11T05:53:20.446Z,1018.89
2023-01-11T05:58:27.810Z,1018.87
2023-01-11T06:03:35.081Z,1018.84
2023-01-11T06:08:42.283Z,1018.79
2023-01-11T06:13:49.458Z,1018.91
2023-01-11T06:18:56.756Z,1018.65
2023-01-11T06:24:03.989Z,1018.72
2023-01-11T06:29:11.178Z,1018.84
2023-01-11T06:34:18.663Z,1018.77
2023-01-11T06:39:25.845Z,1018.73
2023-01-11T06:44:33.158Z,1018.60
2023-01-11T06:49:40.345Z,1018.68
2023-01-11T06:54:47.505Z,1018.55
2023-01-11T06:59:54.740Z,1018.47
2023-01-11T07:05:01.981Z,1018.49
2023-01-11T07:10:09.139Z,1018.50
2023-01-11T07:15:16.335Z,1018.52
2023-01-11T07:20:23.546Z,1018.64
2023-01-11T07:25:30.733Z,1018.58
2023-01-11T07:30:55.431Z,1018.66
2023-01-11T07:35:45.160Z,1018.43
2023-01-11T07:40:52.337Z,1018.38
2023-01-11T07:45:59.710Z,1018.24
2023-01-11T07:51:06.805Z,1018.26
2023-01-11T07:56:13.964Z,1018.26
2023-01-11T08:01:21.176Z,1018.20
2023-01-11T08:06:28.405Z,1018.22
2023-01-11T08:11:35.616Z,1018.18
2023-01-11T08:16:42.886Z,1018.15
2023-01-11T08:21:50.115Z,1018.18
2023-01-11T08:26:57.333Z,1018.29
2023-01-11T08:32:04.464Z,1018.38
2023-01-11T08:37:11.801Z,1018.43
2023-01-11T08:42:18.921Z,1018.31
2023-01-11T08:47:26.149Z,1018.39
2023-01-11T08:52:33.363Z,1018.48
2023-01-11T08:57:40.558Z,1018.30
2023-01-11T09:02:47.719Z,1018.38
2023-01-11T09:07:54.961Z,1018.40
2023-01-11T09:13:02.187Z,1018.44
2023-01-11T09:18:09.342Z,1018.45
2023-01-11T09:23:16.662Z,1018.43
2023-01-11T09:28:23.732Z,1018.29
2023-01-11T09:33:30.964Z,1018.27
2023-01-11T09:38:38.194Z,1018.23
2023-01-11T09:43:45.384Z,1018.34
2023-01-11T09:48:52.571Z,1018.39
2023-01-11T09:53:59.834Z,1018.18
2023-01-11T09:59:07.004Z,1018.27
2023-01-11T10:04:14.167Z,1018.22
2023-01-11T10:18:32.991Z,1018.15
2023-01-11T10:19:40.382Z,1018.18
2023-01-11T10:24:43.065Z,1018.00
2023-01-11T10:29:50.221Z,1018.13
2023-01-11T10:34:57.425Z,1017.93
2023-01-11T10:40:04.652Z,1017.85
2023-01-11T10:45:11.835Z,1017.74
2023-01-11T10:50:19.009Z,1017.72
2023-01-11T10:55:26.301Z,1017.79
2023-01-11T11:00:33.587Z,1017.75
2023-01-11T11:05:40.749Z,1017.66
2023-01-11T11:10:47.997Z,1017.61
2023-01-11T11:15:55.327Z,1017.39
2023-01-11T11:21:02.361Z,1017.49
2023-01-11T11:26:09.581Z,1017.39
2023-01-11T11:31:22.755Z,1017.40
2023-01-11T11:36:29.937Z,1017.24
2023-01-11T11:41:37.159Z,1017.03
2023-01-11T11:46:44.426Z,1017.04
2023-01-11T11:51:51.651Z,1017.11
2023-01-11T11:56:58.940Z,1016.98
2023-01-11T12:02:06.190Z,1017.14
2023-01-11T12:07:13.283Z,1016.87
2023-01-11T12:12:20.480Z,1016.78
2023-01-11T12:17:27.679Z,1016.95
2023-01-11T12:22:34.854Z,1017.12
2023-01-11T12:27:42.111Z,1017.12
2023-01-11T12:32:49.290Z,1017.12
2023-01-11T12:37:56.516Z,1017.00
2023-01-11T12:43:03.929Z,1017.01
2023-01-11T12:48:11.022Z,1017.04
2023-01-11T12:53:18.214Z,1017.17
2023-01-11T12:58:25.417Z,1017.08
2023-01-11T13:03:32.587Z,1017.08
2023-01-11T13:08:39.779Z,1017.08
2023-01-11T13:13:47.038Z,1017.12
2023-01-11T13:18:54.279Z,1017.07
2023-01-11T13:24:01.545Z,1017.15
2023-01-11T13:29:08.749Z,1017.32
2023-01-11T13:34:15.959Z,1017.40
2023-01-11T13:39:23.145Z,1017.60
2023-01-11T13:44:30.392Z,1017.58
2023-01-11T13:49:37.538Z,1017.73
2023-01-11T13:54:44.765Z,1017.69
2023-01-11T13:59:51.981Z,1017.76
2023-01-11T14:04:59.163Z,1017.80
2023-01-11T14:10:06.394Z,1017.81
2023-01-11T14:15:13.571Z,1017.96
2023-01-11T14:20:20.719Z,1017.97
2023-01-11T14:25:27.887Z,1018.04
2023-01-11T14:30:35.163Z,1018.10
2023-01-11T14:35:42.359Z,1018.10
2023-01-11T14:40:49.637Z,1018.26
2023-01-11T14:45:57.074Z,1018.25
2023-01-11T14:51:04.011Z,1018.39
2023-01-11T14:56:11.214Z,1018.36
2023-01-11T15:01:18.494Z,1018.41
2023-01-11T15:06:25.902Z,1018.39
2023-01-11T15:11:33.159Z,1018.45
2023-01-11T15:16:40.455Z,1018.44
2023-01-11T15:21:47.643Z,1018.51
2023-01-11T15:26:54.863Z,1018.47
2023-01-11T15:32:02.083Z,1018.58
2023-01-11T15:37:09.258Z,1018.59
2023-01-11T15:42:16.519Z,1018.67
2023-01-11T15:47:23.973Z,1018.89
2023-01-11T15:52:30.980Z,1018.85
2023-01-11T15:57:38.193Z,1019.09
2023-01-11T16:02:45.515Z,1019.32
2023-01-11T16:07:52.617Z,1019.46
2023-01-11T16:12:59.865Z,1019.55
2023-01-11T16:18:07.168Z,1019.50
2023-01-11T16:23:14.369Z,1019.58
2023-01-11T16:28:21.516Z,1019.64
2023-01-11T16:33:28.750Z,1019.46
2023-01-11T16:38:35.943Z,1019.43
2023-01-11T16:43:43.151Z,1019.54
2023-01-11T16:48:50.376Z,1019.74
2023-01-11T16:53:57.572Z,1019.67
2023-01-11T16:59:04.724Z,1019.64
2023-01-11T17:04:15.992Z,1019.58
2023-01-11T17:09:19.782Z,1019.81
2023-01-11T17:14:26.387Z,1019.84
2023-01-11T17:19:33.613Z,1019.80
2023-01-11T17:24:40.852Z,1019.84
2023-01-11T17:29:47.998Z,1020.01
2023-01-11T17:34:55.380Z,1020.17
2023-01-11T17:40:02.386Z,1020.26
2023-01-11T17:45:09.573Z,1020.53
2023-01-11T17:50:16.796Z,1020.42
2023-01-11T17:55:23.967Z,1020.38
2023-01-11T18:00:31.222Z,1020.52
2023-01-11T18:05:38.405Z,1020.58
2023-01-11T18:10:45.600Z,1020.60
2023-01-11T18:15:52.757Z,1020.86
2023-01-11T18:21:00.028Z,1020.90
2023-01-11T18:26:07.249Z,1020.96
2023-01-11T18:31:14.657Z,1021.00
2023-01-11T18:36:22.165Z,1021.00
2023-01-11T18:41:29.571Z,1020.99
2023-01-11T18:46:38.069Z,1021.02
2023-01-11T18:51:45.423Z,1021.08
2023-01-11T18:56:55.794Z,1021.00
2023-01-11T19:02:16.344Z,1021.10
2023-01-11T19:07:11.587Z,1021.19
2023-01-11T19:12:19.162Z,1021.24
2023-01-11T19:17:26.578Z,1021.36
2023-01-11T19:22:34.051Z,1021.45
2023-01-11T19:27:41.374Z,1021.46
2023-01-11T19:32:48.845Z,1021.54
2023-01-11T19:37:56.490Z,1021.60
2023-01-11T19:43:03.805Z,1021.67
2023-01-11T19:48:11.023Z,1021.89
2023-01-11T19:53:18.630Z,1021.94
2023-01-11T19:58:26.310Z,1021.88
2023-01-11T20:03:33.925Z,1021.98
2023-01-11T20:08:41.668Z,1021.93
2023-01-11T20:13:49.059Z,1021.89
2023-01-11T20:18:56.290Z,1021.87
2023-01-11T20:24:03.637Z,1021.96
2023-01-11T20:29:10.687Z,1021.94
2023-01-11T20:34:18.184Z,1021.88
2023-01-11T20:39:25.598Z,1021.86
2023-01-11T20:44:32.816Z,1021.89
2023-01-11T20:49:40.297Z,1022.02
2023-01-11T20:54:47.650Z,1022.20
2023-01-11T20:59:54.787Z,1022.04
2023-01-11T21:05:02.019Z,1022.25
2023-01-11T21:10:09.266Z,1022.25
2023-01-11T21:15:16.461Z,1022.27
2023-01-11T21:20:23.705Z,1022.21
2023-01-11T21:25:30.949Z,1022.19
2023-01-11T21:30:38.152Z,1022.30
2023-01-11T21:35:45.340Z,1022.32
2023-01-11T21:40:52.574Z,1022.23
2023-01-11T21:45:59.755Z,1022.34
2023-01-11T21:51:06.924Z,1022.39
2023-01-11T21:56:14.185Z,1022.36
2023-01-11T22:01:21.391Z,1022.46
2023-01-11T22:06:28.589Z,1022.38
2023-01-11T22:11:35.821Z,1022.41
2023-01-11T22:16:43.073Z,1022.39
2023-01-11T22:21:50.149Z,1022.47
2023-01-11T22:26:57.446Z,1022.64
2023-01-11T22:32:04.563Z,1022.73
2023-01-11T22:37:11.818Z,1022.80
2023-01-11T22:42:19.060Z,1022.71
2023-01-11T22:47:26.442Z,1022.86
2023-01-11T22:52:33.627Z,1022.95
2023-01-11T22:57:40.871Z,1022.94
2023-01-11T23:02:48.068Z,1022.91
2023-01-11T23:07:55.284Z,1023.05
2023-01-11T23:13:02.575Z,1023.04
2023-01-11T23:18:09.874Z,1023.00
2023-01-11T23:23:17.071Z,1023.10
2023-01-11T23:28:24.324Z,1023.03
2023-01-11T23:33:31.466Z,1023.19
2023-01-11T23:38:38.706Z,1023.21
2023-01-11T23:43:45.923Z,1023.27
2023-01-11T23:48:53.137Z,1023.24
2023-01-11T23:54:00.315Z,1023.00
2023-01-11T23:59:07.558Z,1023.06
